METAR Data
IDs: Format: Raw Decoded Include TAF

Data at: 2218 UTC 22 Sep 2020

METAR for:KHWY (Warrenton/Fauquier A, VA, US)
Text:KHWY 222155Z AUTO 00000KT 10SM CLR 22/08 A3004 RMK AO2 T02180083
Temperature: 21.8°C ( 71°F)
Dewpoint: 8.3°C ( 47°F) [RH = 42%]
Pressure (altimeter):30.04 inches Hg (1017.4 mb)
Winds:calm
Visibility:10 or more sm (16+ km)
Ceiling:at least 12,000 feet AGL
Clouds:sky clear below 12,000 feet AGL
QC Flag:automated observation with no human augmentation